Time;durP1;ratioP1;P1;durP2;ratioP2;P2;SDS_P1;SDS_P2;PMS_P1;PMS_P2;Temp;Humidity;BMP_temperature;BMP_pressure;BME280_temperature;BME280_humidity;BME280_pressure;Samples;Min_cycle;Max_cycle;Signal;HPM_P1;HPM_P2
2022/11/10 00:01:18;;;;;;;91.47;46.78;;;;;;;;;;6196169;28;20045;-77
2022/11/10 00:04:18;;;;;;;76.50;36.50;;;;;;;;;;6196247;28;20065;-77
2022/11/10 00:07:18;;;;;;;88.43;42.38;;;;;;;;;;6195011;28;20269;-77
2022/11/10 00:10:18;;;;;;;69.65;32.78;;;;;;;;;;6177984;28;20026;-77
2022/11/10 00:13:18;;;;;;;72.40;36.55;;;;;;;;;;6196076;28;20453;-78
2022/11/10 00:19:38;;;;;;;64.00;30.63;;;;;;;;;;6200074;28;20034;-78
2022/11/10 00:22:38;;;;;;;70.18;34.22;;;;;;;;;;6201972;28;20029;-77
2022/11/10 00:25:38;;;;;;;79.25;35.47;;;;;;;;;;6184405;28;21067;-77
2022/11/10 00:28:39;;;;;;;73.13;38.95;;;;;;;;;;6182033;28;20029;-77
2022/11/10 00:31:39;;;;;;;70.32;35.47;;;;;;;;;;6184899;28;20269;-77
2022/11/10 00:34:39;;;;;;;73.28;33.47;;;;;;;;;;6201234;28;20722;-77
2022/11/10 00:37:40;;;;;;;51.43;27.23;;;;;;;;;;6201311;28;20069;-77
2022/11/10 00:40:40;;;;;;;69.47;35.50;;;;;;;;;;6183306;28;20637;-77
2022/11/10 00:43:40;;;;;;;74.60;34.72;;;;;;;;;;6201979;28;20262;-77
2022/11/10 00:46:40;;;;;;;77.33;36.37;;;;;;;;;;6186761;28;20116;-77
2022/11/10 00:49:40;;;;;;;74.13;32.72;;;;;;;;;;6183404;28;20030;-78
2022/11/10 00:52:41;;;;;;;74.10;35.33;;;;;;;;;;6200873;28;20053;-76
2022/11/10 00:55:41;;;;;;;80.00;38.22;;;;;;;;;;6184117;28;20512;-76
2022/11/10 00:58:41;;;;;;;80.20;36.35;;;;;;;;;;6200291;28;20039;-77
2022/11/10 01:01:41;;;;;;;82.22;41.58;;;;;;;;;;6182471;28;20026;-77
2022/11/10 01:04:42;;;;;;;86.05;39.50;;;;;;;;;;6190419;28;20315;-77
2022/11/10 01:07:42;;;;;;;74.37;35.83;;;;;;;;;;6176149;28;20017;-77
2022/11/10 01:10:42;;;;;;;71.60;34.85;;;;;;;;;;6174402;28;20118;-77
2022/11/10 01:13:43;;;;;;;79.32;41.42;;;;;;;;;;6174161;28;20058;-77
2022/11/10 01:16:43;;;;;;;88.80;37.37;;;;;;;;;;6174840;28;20054;-77
2022/11/10 01:19:43;;;;;;;73.68;39.38;;;;;;;;;;6176355;28;20446;-77
2022/11/10 01:22:43;;;;;;;71.47;35.40;;;;;;;;;;6175063;28;20084;-76
2022/11/10 01:25:44;;;;;;;73.20;36.35;;;;;;;;;;6173814;28;20023;-76
2022/11/10 01:28:44;;;;;;;65.63;30.90;;;;;;;;;;6173020;28;20589;-77
2022/11/10 01:31:44;;;;;;;69.37;31.47;;;;;;;;;;6175913;28;20027;-77
2022/11/10 01:34:44;;;;;;;79.20;39.47;;;;;;;;;;6176528;28;20438;-76
2022/11/10 01:37:45;;;;;;;85.15;37.28;;;;;;;;;;6177303;28;20018;-76
2022/11/10 01:40:45;;;;;;;85.03;39.90;;;;;;;;;;6176339;28;20438;-77
2022/11/10 01:43:45;;;;;;;81.60;37.47;;;;;;;;;;6174455;28;20033;-77
2022/11/10 01:46:46;;;;;;;60.07;29.67;;;;;;;;;;6176343;28;20038;-76
2022/11/10 01:49:46;;;;;;;74.38;33.63;;;;;;;;;;6175617;28;20037;-76
2022/11/10 01:52:47;;;;;;;76.17;35.97;;;;;;;;;;6175550;28;20155;-76
2022/11/10 01:55:48;;;;;;;70.45;30.95;;;;;;;;;;6175879;28;20470;-76
2022/11/10 01:58:51;;;;;;;67.05;30.67;;;;;;;;;;6176196;28;20038;-74
2022/11/10 02:01:53;;;;;;;69.60;32.90;;;;;;;;;;6175392;28;20110;-75
2022/11/10 02:04:53;;;;;;;68.82;32.75;;;;;;;;;;6186233;28;20486;-76
2022/11/10 02:07:54;;;;;;;66.38;33.35;;;;;;;;;;6182857;28;20030;-76
2022/11/10 02:10:55;;;;;;;77.20;34.50;;;;;;;;;;6199364;28;20081;-76
2022/11/10 02:13:55;;;;;;;78.00;34.60;;;;;;;;;;6182348;28;20018;-76
2022/11/10 02:16:56;;;;;;;79.27;36.53;;;;;;;;;;6181039;28;20447;-75
2022/11/10 02:20:03;;;;;;;72.50;33.28;;;;;;;;;;6181326;28;20025;-76
2022/11/10 02:23:10;;;;;;;76.50;37.30;;;;;;;;;;6199550;28;20386;-77
2022/11/10 02:26:11;;;;;;;74.82;36.42;;;;;;;;;;6195279;28;20433;-76
2022/11/10 02:29:12;;;;;;;71.78;35.05;;;;;;;;;;6197202;28;20022;-76
2022/11/10 02:32:12;;;;;;;77.25;34.05;;;;;;;;;;6179983;28;20184;-76
2022/11/10 02:35:12;;;;;;;69.57;32.90;;;;;;;;;;6198665;28;20105;-75
2022/11/10 02:38:13;;;;;;;66.13;32.70;;;;;;;;;;6198525;28;20022;-75
2022/11/10 02:41:13;;;;;;;59.23;29.47;;;;;;;;;;6197499;28;20168;-75
2022/11/10 02:44:13;;;;;;;65.03;27.85;;;;;;;;;;6197877;28;20022;-75
2022/11/10 02:47:14;;;;;;;75.07;34.60;;;;;;;;;;6199217;28;20027;-76
2022/11/10 02:50:14;;;;;;;66.47;30.38;;;;;;;;;;6198183;28;20040;-76
2022/11/10 02:53:14;;;;;;;69.63;33.47;;;;;;;;;;6198425;28;20022;-76
2022/11/10 02:56:14;;;;;;;66.82;30.10;;;;;;;;;;6198145;28;20057;-75
2022/11/10 02:59:14;;;;;;;64.57;29.70;;;;;;;;;;6198256;28;20026;-76
2022/11/10 03:02:15;;;;;;;63.67;31.55;;;;;;;;;;6197905;28;20113;-76
2022/11/10 03:05:15;;;;;;;55.47;27.13;;;;;;;;;;6180141;28;20046;-76
2022/11/10 03:08:15;;;;;;;66.50;28.02;;;;;;;;;;6197267;28;20422;-76
2022/11/10 03:11:15;;;;;;;68.75;30.77;;;;;;;;;;6179413;28;20261;-76
2022/11/10 03:14:16;;;;;;;67.07;27.75;;;;;;;;;;6199271;28;20033;-76
2022/11/10 03:17:16;;;;;;;53.65;27.25;;;;;;;;;;6198007;28;20030;-76
2022/11/10 03:20:16;;;;;;;67.38;30.75;;;;;;;;;;6180571;28;20112;-76
2022/11/10 03:23:17;;;;;;;45.85;23.92;;;;;;;;;;6198077;28;20022;-76
2022/11/10 03:26:17;;;;;;;70.47;31.63;;;;;;;;;;6181078;28;20414;-76
2022/11/10 03:29:17;;;;;;;72.30;30.50;;;;;;;;;;6197108;28;20085;-76
2022/11/10 03:32:18;;;;;;;61.90;30.67;;;;;;;;;;6195721;28;20077;-76
2022/11/10 03:35:18;;;;;;;66.85;33.17;;;;;;;;;;6197954;28;20022;-76
2022/11/10 03:38:18;;;;;;;46.22;24.92;;;;;;;;;;6196613;28;20026;-75
2022/11/10 03:41:18;;;;;;;62.40;30.57;;;;;;;;;;6196663;28;20261;-75
2022/11/10 03:44:18;;;;;;;60.60;27.00;;;;;;;;;;6197798;28;20813;-75
2022/11/10 03:47:19;;;;;;;59.90;27.10;;;;;;;;;;6179509;28;20011;-75
2022/11/10 03:50:19;;;;;;;57.23;26.10;;;;;;;;;;6200798;28;20390;-76
2022/11/10 03:53:19;;;;;;;66.93;28.07;;;;;;;;;;6201835;28;20042;-76
2022/11/10 03:56:19;;;;;;;64.18;30.33;;;;;;;;;;6202803;28;20775;-75
2022/11/10 03:59:19;;;;;;;67.18;29.85;;;;;;;;;;6202200;28;20027;-75
2022/11/10 04:02:20;;;;;;;56.80;28.33;;;;;;;;;;6202261;28;20018;-75
2022/11/10 04:18:35;;;;;;;67.72;29.83;;;;;;;;;;6201555;28;20113;-76
2022/11/10 04:21:36;;;;;;;54.88;26.63;;;;;;;;;;6202905;28;20544;-76
2022/11/10 04:24:36;;;;;;;63.27;27.90;;;;;;;;;;6202085;28;20021;-76
2022/11/10 04:27:37;;;;;;;62.30;27.17;;;;;;;;;;6201577;28;20031;-76
2022/11/10 04:30:37;;;;;;;61.90;26.10;;;;;;;;;;6183144;28;20261;-77
2022/11/10 04:33:38;;;;;;;65.38;28.02;;;;;;;;;;6184843;28;20033;-76
2022/11/10 04:36:39;;;;;;;68.35;27.10;;;;;;;;;;6201687;28;20014;-75
2022/11/10 04:39:40;;;;;;;60.75;27.58;;;;;;;;;;6201158;28;20023;-75
2022/11/10 04:42:40;;;;;;;63.95;27.75;;;;;;;;;;6201436;28;20018;-75
2022/11/10 04:45:41;;;;;;;60.75;29.38;;;;;;;;;;6202102;28;20062;-76
2022/11/10 04:48:41;;;;;;;67.87;27.47;;;;;;;;;;6201021;28;20278;-76
2022/11/10 04:51:41;;;;;;;61.67;27.48;;;;;;;;;;6201411;28;20272;-76
2022/11/10 04:54:42;;;;;;;62.60;26.60;;;;;;;;;;6202383;28;20092;-76
2022/11/10 04:57:42;;;;;;;57.33;27.70;;;;;;;;;;6201439;28;20050;-76
2022/11/10 05:00:42;;;;;;;50.10;25.02;;;;;;;;;;6200271;28;20018;-77
2022/11/10 05:03:43;;;;;;;51.38;23.30;;;;;;;;;;6200841;28;20045;-76
2022/11/10 05:06:43;;;;;;;49.37;23.37;;;;;;;;;;6201269;28;20081;-76
2022/11/10 05:09:43;;;;;;;52.33;25.73;;;;;;;;;;6182793;28;20072;-76
2022/11/10 05:12:43;;;;;;;66.35;27.63;;;;;;;;;;6200466;28;20022;-76
2022/11/10 05:15:44;;;;;;;57.00;25.00;;;;;;;;;;6183025;28;20340;-76
2022/11/10 05:18:44;;;;;;;58.95;26.05;;;;;;;;;;6193791;28;20105;-76
2022/11/10 05:21:44;;;;;;;53.25;25.38;;;;;;;;;;6200295;28;20018;-76
2022/11/10 05:24:44;;;;;;;55.65;25.15;;;;;;;;;;6199415;28;20437;-76
2022/11/10 05:27:44;;;;;;;60.63;25.52;;;;;;;;;;6199692;28;20106;-76
2022/11/10 05:30:45;;;;;;;59.30;24.30;;;;;;;;;;6198604;28;20266;-76
2022/11/10 05:33:45;;;;;;;57.00;26.10;;;;;;;;;;6182358;28;20474;-76
2022/11/10 05:36:45;;;;;;;57.97;29.30;;;;;;;;;;6199262;28;20073;-76
2022/11/10 05:39:45;;;;;;;67.82;27.13;;;;;;;;;;6197341;28;20355;-76
2022/11/10 05:42:46;;;;;;;73.67;30.30;;;;;;;;;;6198480;28;20489;-76
2022/11/10 05:45:47;;;;;;;60.00;28.03;;;;;;;;;;6200344;28;20261;-76
2022/11/10 05:48:47;;;;;;;62.80;27.80;;;;;;;;;;6199163;28;20493;-76
2022/11/10 05:51:47;;;;;;;63.63;30.35;;;;;;;;;;6199724;28;20764;-75
2022/11/10 05:54:47;;;;;;;69.67;31.57;;;;;;;;;;6201882;28;20058;-75
2022/11/10 05:57:48;;;;;;;65.50;32.20;;;;;;;;;;6178532;28;20027;-75
2022/11/10 06:00:49;;;;;;;63.30;27.90;;;;;;;;;;6198786;28;20288;-76
2022/11/10 06:03:49;;;;;;;60.70;25.13;;;;;;;;;;6197242;28;20293;-75
2022/11/10 06:06:49;;;;;;;49.95;23.02;;;;;;;;;;6201497;28;20296;-75
2022/11/10 06:09:49;;;;;;;58.98;26.40;;;;;;;;;;6179677;28;20061;-75
2022/11/10 06:12:50;;;;;;;59.33;24.52;;;;;;;;;;6197581;28;20018;-75
2022/11/10 06:15:50;;;;;;;53.03;23.58;;;;;;;;;;6198768;28;20034;-75
2022/11/10 06:18:50;;;;;;;58.70;25.13;;;;;;;;;;6195240;28;20568;-75
2022/11/10 06:21:50;;;;;;;47.72;23.72;;;;;;;;;;6198573;28;20046;-76
2022/11/10 06:24:50;;;;;;;49.13;23.23;;;;;;;;;;6195952;28;20023;-76
2022/11/10 06:27:51;;;;;;;57.67;25.90;;;;;;;;;;6198588;28;20670;-76
2022/11/10 06:30:51;;;;;;;58.10;25.08;;;;;;;;;;6196776;28;20300;-75
2022/11/10 06:33:51;;;;;;;67.68;30.67;;;;;;;;;;6198616;28;20030;-75
2022/11/10 06:36:51;;;;;;;61.53;25.92;;;;;;;;;;6197542;28;20026;-75
2022/11/10 06:39:51;;;;;;;65.25;27.55;;;;;;;;;;6195836;28;20026;-75
2022/11/10 06:42:52;;;;;;;56.60;27.97;;;;;;;;;;6178052;28;20030;-75
2022/11/10 06:45:52;;;;;;;54.38;27.27;;;;;;;;;;6196280;28;20057;-74
2022/11/10 06:48:52;;;;;;;55.73;26.43;;;;;;;;;;6185085;28;20161;-76
2022/11/10 06:51:54;;;;;;;57.30;27.60;;;;;;;;;;6196017;28;20027;-76
2022/11/10 06:54:54;;;;;;;58.13;27.35;;;;;;;;;;6212013;28;20360;-77
2022/11/10 06:57:54;;;;;;;66.32;29.00;;;;;;;;;;6193862;28;20034;-76
2022/11/10 07:00:57;;;;;;;77.80;33.17;;;;;;;;;;6213592;28;20030;-77
2022/11/10 07:03:57;;;;;;;66.25;29.05;;;;;;;;;;6190429;28;20045;-76
2022/11/10 07:06:58;;;;;;;72.55;33.03;;;;;;;;;;6219533;28;20037;-78
2022/11/10 07:09:59;;;;;;;78.80;33.97;;;;;;;;;;6196467;28;20014;-76
2022/11/10 07:13:01;;;;;;;94.32;39.85;;;;;;;;;;6212184;28;20065;-76
2022/11/10 07:16:05;;;;;;;69.00;32.25;;;;;;;;;;6195573;28;20837;-77
2022/11/10 07:19:08;;;;;;;86.25;32.60;;;;;;;;;;6204226;28;20498;-77
2022/11/10 07:22:08;;;;;;;77.45;36.17;;;;;;;;;;6214371;28;20002;-76
2022/11/10 07:25:08;;;;;;;99.10;42.95;;;;;;;;;;6212634;28;20033;-78
2022/11/10 07:28:11;;;;;;;91.95;40.95;;;;;;;;;;6196958;28;20030;-75
2022/11/10 07:31:12;;;;;;;85.38;37.72;;;;;;;;;;6203310;28;20086;-76
2022/11/10 07:34:12;;;;;;;84.63;35.25;;;;;;;;;;6199086;28;20149;-76
2022/11/10 07:37:13;;;;;;;97.53;41.08;;;;;;;;;;6216007;28;20032;-75
2022/11/10 07:40:14;;;;;;;106.10;40.70;;;;;;;;;;6215155;28;20378;-76
2022/11/10 07:43:15;;;;;;;107.05;47.30;;;;;;;;;;6198273;28;20019;-76
2022/11/10 07:46:15;;;;;;;93.55;41.28;;;;;;;;;;6198054;28;20014;-76
2022/11/10 07:49:15;;;;;;;95.75;41.30;;;;;;;;;;6196599;28;20670;-76
2022/11/10 07:52:15;;;;;;;101.13;44.03;;;;;;;;;;6177296;28;20030;-76
2022/11/10 07:55:16;;;;;;;100.13;40.37;;;;;;;;;;6196516;28;20019;-76
2022/11/10 07:58:16;;;;;;;97.07;39.13;;;;;;;;;;6196224;28;20455;-76
2022/11/10 08:01:17;;;;;;;88.28;39.53;;;;;;;;;;6196287;28;20263;-75
2022/11/10 08:04:17;;;;;;;76.17;35.43;;;;;;;;;;6196693;28;20038;-76
2022/11/10 08:07:17;;;;;;;82.37;39.77;;;;;;;;;;6196331;28;20037;-76
2022/11/10 08:10:17;;;;;;;80.33;37.60;;;;;;;;;;6197321;28;20033;-76
2022/11/10 08:13:18;;;;;;;79.32;37.63;;;;;;;;;;6196050;28;20050;-76
2022/11/10 08:16:18;;;;;;;89.63;37.80;;;;;;;;;;6179180;28;20030;-75
2022/11/10 08:19:18;;;;;;;90.78;41.80;;;;;;;;;;6196405;28;20034;-75
2022/11/10 08:22:18;;;;;;;81.25;38.75;;;;;;;;;;6179618;28;20081;-76
2022/11/10 08:25:19;;;;;;;89.80;39.00;;;;;;;;;;6198333;28;20037;-76
2022/11/10 08:28:19;;;;;;;81.70;38.25;;;;;;;;;;6197606;28;20458;-76
2022/11/10 08:31:19;;;;;;;82.80;38.83;;;;;;;;;;6178407;28;20030;-76
2022/11/10 08:34:21;;;;;;;97.28;42.70;;;;;;;;;;6196492;28;20497;-76
2022/11/10 08:37:21;;;;;;;88.30;41.22;;;;;;;;;;6183085;28;20050;-76
2022/11/10 08:40:21;;;;;;;83.13;41.88;;;;;;;;;;6200195;28;20486;-76
2022/11/10 08:43:22;;;;;;;94.57;43.50;;;;;;;;;;6183215;28;20033;-76
2022/11/10 08:46:22;;;;;;;80.65;40.60;;;;;;;;;;6183906;28;20022;-75
2022/11/10 08:49:22;;;;;;;81.18;37.65;;;;;;;;;;6200532;28;20022;-75
2022/11/10 08:52:22;;;;;;;74.65;37.50;;;;;;;;;;6199114;28;20408;-75
2022/11/10 08:55:23;;;;;;;80.00;38.17;;;;;;;;;;6200738;28;20022;-76
2022/11/10 08:58:23;;;;;;;78.53;37.33;;;;;;;;;;6200887;28;20034;-76
2022/11/10 09:01:23;;;;;;;76.50;35.60;;;;;;;;;;6199163;28;20393;-75
2022/11/10 09:04:23;;;;;;;73.33;36.00;;;;;;;;;;6199968;28;20030;-74
2022/11/10 09:07:24;;;;;;;80.20;40.08;;;;;;;;;;6198165;28;20391;-76
2022/11/10 09:10:24;;;;;;;73.65;35.17;;;;;;;;;;6200917;28;20057;-75
2022/11/10 09:13:24;;;;;;;72.50;37.15;;;;;;;;;;6200071;28;20030;-74
2022/11/10 09:16:24;;;;;;;66.88;31.92;;;;;;;;;;6180997;28;20097;-74
2022/11/10 09:19:24;;;;;;;70.07;37.90;;;;;;;;;;6180740;28;20023;-74
2022/11/10 09:22:25;;;;;;;75.23;36.27;;;;;;;;;;6197658;28;20018;-74
2022/11/10 09:25:25;;;;;;;65.10;32.97;;;;;;;;;;6181009;28;20022;-74
2022/11/10 09:28:25;;;;;;;71.95;35.00;;;;;;;;;;6199910;28;20065;-74
2022/11/10 09:31:25;;;;;;;72.30;36.60;;;;;;;;;;6199556;28;20046;-75
2022/11/10 09:34:25;;;;;;;72.87;34.13;;;;;;;;;;6199756;28;20015;-76
2022/11/10 09:37:26;;;;;;;78.35;40.10;;;;;;;;;;6200451;28;20116;-75
2022/11/10 09:40:26;;;;;;;150.80;69.50;;;;;;;;;;6199938;28;20014;-75
2022/11/10 09:43:46;;;;;;;121.18;60.95;;;;;;;;;;6198561;28;20457;-75
2022/11/10 09:46:56;;;;;;;97.22;47.92;;;;;;;;;;6197260;28;20105;-75
2022/11/10 09:49:57;;;;;;;76.75;39.33;;;;;;;;;;6197767;28;20018;-75
2022/11/10 09:52:58;;;;;;;81.83;41.33;;;;;;;;;;6198779;28;20070;-75
2022/11/10 09:56:00;;;;;;;71.37;38.50;;;;;;;;;;6199669;28;20199;-75
2022/11/10 09:59:14;;;;;;;74.00;37.22;;;;;;;;;;6198922;28;20022;-75
2022/11/10 10:02:36;;;;;;;76.35;37.72;;;;;;;;;;6198546;28;20018;-74
2022/11/10 10:05:37;;;;;;;;;;;;;;;;;;6198266;28;20077;-74
2022/11/10 10:08:40;;;;;;;86.68;43.65;;;;;;;;;;6181732;28;19905;-74
2022/11/10 10:11:46;;;;;;;81.78;44.33;;;;;;;;;;6198154;28;20471;-74
2022/11/10 10:14:59;;;;;;;73.72;40.28;;;;;;;;;;6180954;28;20433;-75
2022/11/10 10:18:05;;;;;;;79.10;40.05;;;;;;;;;;6180586;28;20133;-74
2022/11/10 10:21:32;;;;;;;78.28;39.60;;;;;;;;;;6180192;28;20077;-75
2022/11/10 10:24:33;;;;;;;69.50;37.55;;;;;;;;;;6176037;28;20030;-75
2022/11/10 10:27:37;;;;;;;74.35;36.17;;;;;;;;;;6198437;28;20027;-75
2022/11/10 10:30:39;;;;;;;62.40;28.35;;;;;;;;;;6181081;28;20521;-76
2022/11/10 10:33:39;;;;;;;56.03;25.98;;;;;;;;;;6197426;28;20463;-75
2022/11/10 10:36:40;;;;;;;57.23;32.80;;;;;;;;;;6197884;28;20026;-75
2022/11/10 10:39:42;;;;;;;45.07;24.23;;;;;;;;;;6197003;28;20451;-76
2022/11/10 10:42:43;;;;;;;57.65;28.20;;;;;;;;;;6178557;28;20055;-75
2022/11/10 10:45:43;;;;;;;59.40;27.03;;;;;;;;;;6196190;28;20021;-75
2022/11/10 10:48:43;;;;;;;53.10;26.97;;;;;;;;;;6180278;28;20026;-75
2022/11/10 10:51:44;;;;;;;56.57;27.97;;;;;;;;;;6172640;28;20026;-74
2022/11/10 10:54:44;;;;;;;32.37;17.07;;;;;;;;;;6195571;28;20088;-75
2022/11/10 10:57:52;;;;;;;44.60;24.10;;;;;;;;;;6196703;28;20022;-75
2022/11/10 11:00:54;;;;;;;45.60;25.77;;;;;;;;;;6196246;28;20382;-75
2022/11/10 11:03:55;;;;;;;44.45;23.20;;;;;;;;;;6174836;28;20035;-75
2022/11/10 11:07:00;;;;;;;41.50;21.97;;;;;;;;;;6195919;28;20537;-76
2022/11/10 11:10:01;;;;;;;47.83;24.17;;;;;;;;;;6192168;28;20022;-75
2022/11/10 11:13:15;;;;;;;48.60;25.67;;;;;;;;;;6174384;28;20077;-75
2022/11/10 11:16:15;;;;;;;41.80;22.60;;;;;;;;;;6177402;28;20026;-76
2022/11/10 11:19:15;;;;;;;42.20;23.13;;;;;;;;;;6195900;28;20098;-75
2022/11/10 11:22:25;;;;;;;38.30;21.77;;;;;;;;;;6191069;28;20061;-75
2022/11/10 11:25:38;;;;;;;35.92;19.25;;;;;;;;;;6196507;28;20098;-75
2022/11/10 11:28:50;;;;;;;35.78;19.70;;;;;;;;;;6195486;28;20035;-75
2022/11/10 11:31:50;;;;;;;33.03;18.27;;;;;;;;;;6192121;28;20037;-75
2022/11/10 11:35:02;;;;;;;40.50;23.08;;;;;;;;;;6191713;28;20034;-75
2022/11/10 11:38:21;;;;;;;28.77;16.63;;;;;;;;;;6192586;28;20458;-75
2022/11/10 11:41:41;;;;;;;31.40;20.05;;;;;;;;;;6177908;28;20026;-76
2022/11/10 11:44:47;;;;;;;34.60;19.75;;;;;;;;;;6193872;28;20026;-75
2022/11/10 11:47:47;;;;;;;31.95;17.75;;;;;;;;;;6195826;28;20037;-75
2022/11/10 11:50:57;;;;;;;32.05;19.45;;;;;;;;;;6179039;28;20034;-76
2022/11/10 11:54:00;;;;;;;30.45;17.60;;;;;;;;;;6194763;28;20085;-75
2022/11/10 11:57:14;;;;;;;33.45;18.70;;;;;;;;;;6192658;28;20031;-76
2022/11/10 12:00:16;;;;;;;30.52;18.52;;;;;;;;;;6201053;28;20029;-77
2022/11/10 12:03:28;;;;;;;28.00;15.50;;;;;;;;;;6178210;28;20514;-77
2022/11/10 12:06:33;;;;;;;34.22;17.48;;;;;;;;;;6194863;28;20097;-77
2022/11/10 12:09:43;;;;;;;33.95;18.33;;;;;;;;;;6195870;28;20403;-77
2022/11/10 12:12:54;;;;;;;29.85;16.67;;;;;;;;;;6198650;28;20038;-76
2022/11/10 12:15:57;;;;;;;31.13;17.00;;;;;;;;;;6199220;28;20482;-77
2022/11/10 12:19:14;;;;;;;31.77;18.85;;;;;;;;;;6195622;28;20037;-76
2022/11/10 12:22:34;;;;;;;31.88;17.13;;;;;;;;;;6181039;28;20030;-76
2022/11/10 12:25:40;;;;;;;32.75;18.92;;;;;;;;;;6198208;28;20019;-77
2022/11/10 12:28:44;;;;;;;33.08;18.77;;;;;;;;;;6180390;28;20092;-77
2022/11/10 12:31:45;;;;;;;30.95;17.48;;;;;;;;;;6197431;28;20113;-76
2022/11/10 12:34:47;;;;;;;30.48;17.92;;;;;;;;;;6197081;28;20030;-76
2022/11/10 12:37:59;;;;;;;28.30;17.23;;;;;;;;;;6198083;28;20070;-76
2022/11/10 12:41:11;;;;;;;35.10;19.20;;;;;;;;;;6192043;28;20018;-76
2022/11/10 12:44:11;;;;;;;;;;;;;;;;;;6197396;28;20033;-76
2022/11/10 12:47:14;;;;;;;40.90;22.80;;;;;;;;;;6181438;28;19909;-76
2022/11/10 12:50:14;;;;;;;38.45;20.80;;;;;;;;;;6198558;28;20169;-77
2022/11/10 12:53:19;;;;;;;27.83;16.83;;;;;;;;;;6179440;28;20026;-77
2022/11/10 12:56:23;;;;;;;35.50;21.85;;;;;;;;;;6197506;28;20045;-77
2022/11/10 12:59:26;;;;;;;28.33;16.70;;;;;;;;;;6181285;28;20026;-77
2022/11/10 13:02:35;;;;;;;45.58;25.60;;;;;;;;;;6200091;28;20471;-77
2022/11/10 13:05:37;;;;;;;30.52;17.65;;;;;;;;;;6194658;28;20057;-77
2022/11/10 13:08:40;;;;;;;35.25;21.25;;;;;;;;;;6199777;28;20454;-76
2022/11/10 13:11:41;;;;;;;35.78;19.00;;;;;;;;;;6199890;28;20061;-76
2022/11/10 13:14:41;;;;;;;34.67;19.77;;;;;;;;;;6199153;28;20040;-76
2022/11/10 13:17:42;;;;;;;33.43;19.97;;;;;;;;;;6199011;28;20303;-76
2022/11/10 13:20:47;;;;;;;40.75;23.17;;;;;;;;;;6202451;28;20069;-76
2022/11/10 13:23:48;;;;;;;60.33;28.27;;;;;;;;;;6203936;28;20019;-75
2022/11/10 13:26:51;;;;;;;38.03;22.77;;;;;;;;;;6205269;28;20038;-75
2022/11/10 13:29:53;;;;;;;39.85;24.50;;;;;;;;;;6207688;28;20026;-75
2022/11/10 13:32:53;;;;;;;;;;;;;;;;;;6188259;28;20032;-77
2022/11/10 13:35:56;;;;;;;41.55;21.52;;;;;;;;;;6204791;28;19917;-76
2022/11/10 13:39:13;;;;;;;32.60;18.63;;;;;;;;;;6178990;28;20041;-76
2022/11/10 13:42:18;;;;;;;35.20;19.58;;;;;;;;;;6196804;28;20042;-76
2022/11/10 13:45:30;;;;;;;38.00;20.13;;;;;;;;;;6196422;28;20018;-76
2022/11/10 13:48:36;;;;;;;31.90;17.77;;;;;;;;;;6193954;28;20033;-76
2022/11/10 13:51:48;;;;;;;30.95;16.17;;;;;;;;;;6197453;28;20030;-76
2022/11/10 13:54:51;;;;;;;27.20;13.45;;;;;;;;;;6195828;28;20041;-77
2022/11/10 13:57:51;;;;;;;21.27;11.57;;;;;;;;;;6199839;28;20101;-76
2022/11/10 14:01:12;;;;;;;21.58;11.95;;;;;;;;;;6179106;28;20034;-77
2022/11/10 14:04:31;;;;;;;22.42;10.05;;;;;;;;;;6180596;28;20054;-77
2022/11/10 14:07:36;;;;;;;23.77;12.00;;;;;;;;;;6198118;28;20700;-76
2022/11/10 14:10:39;;;;;;;19.38;10.50;;;;;;;;;;6198425;28;20184;-76
2022/11/10 14:13:49;;;;;;;22.95;10.52;;;;;;;;;;6198244;28;20057;-77
2022/11/10 14:16:51;;;;;;;26.92;11.75;;;;;;;;;;6198518;28;20030;-77
2022/11/10 14:19:52;;;;;;;21.58;10.00;;;;;;;;;;6199377;28;20060;-77
2022/11/10 14:22:52;;;;;;;19.27;9.67;;;;;;;;;;6198457;28;20030;-77
2022/11/10 14:26:01;;;;;;;20.20;10.27;;;;;;;;;;6197363;28;20031;-76
2022/11/10 14:29:21;;;;;;;22.25;11.48;;;;;;;;;;6195384;28;20383;-76
2022/11/10 14:32:23;;;;;;;22.67;10.60;;;;;;;;;;6166714;28;20233;-76
2022/11/10 14:35:23;;;;;;;;;;;;;;;;;;6181625;28;20022;-77
2022/11/10 14:38:25;;;;;;;23.33;11.05;;;;;;;;;;6196942;28;19921;-77
2022/11/10 14:41:25;;;;;;;23.02;11.75;;;;;;;;;;6180246;28;20521;-77
2022/11/10 14:44:26;;;;;;;29.90;16.20;;;;;;;;;;6180774;28;20015;-77
2022/11/10 14:47:29;;;;;;;31.13;16.10;;;;;;;;;;6180562;28;20022;-77
2022/11/10 14:50:32;;;;;;;29.55;13.77;;;;;;;;;;6196980;28;20262;-77
2022/11/10 14:53:33;;;;;;;27.00;14.60;;;;;;;;;;6199234;28;20015;-77
2022/11/10 14:56:35;;;;;;;41.00;18.77;;;;;;;;;;6179734;28;20026;-77
2022/11/10 14:59:36;;;;;;;29.35;14.93;;;;;;;;;;6195533;28;20101;-77
2022/11/10 15:02:36;;;;;;;29.03;14.57;;;;;;;;;;6196491;28;20084;-77
2022/11/10 15:05:37;;;;;;;28.67;13.23;;;;;;;;;;6197568;28;20045;-77
2022/11/10 15:08:38;;;;;;;26.47;12.93;;;;;;;;;;6197833;28;20062;-77
2022/11/10 15:11:49;;;;;;;32.20;16.50;;;;;;;;;;6196590;28;20034;-76
2022/11/10 15:14:56;;;;;;;33.95;17.77;;;;;;;;;;6198284;28;20037;-76
2022/11/10 15:17:56;;;;;;;31.60;16.08;;;;;;;;;;6196401;28;20041;-76
2022/11/10 15:20:58;;;;;;;29.50;14.73;;;;;;;;;;6179327;28;20030;-77
2022/11/10 15:24:00;;;;;;;38.22;20.33;;;;;;;;;;6197235;28;20031;-77
2022/11/10 15:27:00;;;;;;;42.40;20.70;;;;;;;;;;6196286;28;20109;-77
2022/11/10 15:30:01;;;;;;;45.17;21.57;;;;;;;;;;6198305;28;20488;-76
2022/11/10 15:33:07;;;;;;;45.77;20.93;;;;;;;;;;6195588;28;20112;-77
2022/11/10 15:36:15;;;;;;;52.63;24.67;;;;;;;;;;6196800;28;20025;-77
2022/11/10 15:39:22;;;;;;;43.13;20.48;;;;;;;;;;6194471;28;20328;-77
2022/11/10 15:42:23;;;;;;;40.97;19.20;;;;;;;;;;6178186;28;20462;-77
2022/11/10 15:45:23;;;;;;;28.03;14.17;;;;;;;;;;6196774;28;20025;-77
2022/11/10 15:48:25;;;;;;;31.93;14.50;;;;;;;;;;6176518;28;20125;-77
2022/11/10 15:51:25;;;;;;;;;;;;;;;;;;6195710;28;20053;-77
2022/11/10 15:54:28;;;;;;;29.60;17.23;;;;;;;;;;6178854;28;19963;-77
2022/11/10 15:57:28;;;;;;;35.67;20.10;;;;;;;;;;6190939;28;20369;-77
2022/11/10 16:00:28;;;;;;;36.42;21.38;;;;;;;;;;6191542;28;20390;-77
2022/11/10 16:03:29;;;;;;;42.80;22.70;;;;;;;;;;6195191;28;20121;-77
2022/11/10 16:06:30;;;;;;;42.03;21.13;;;;;;;;;;6194240;28;20114;-77
2022/11/10 16:09:30;;;;;;;40.13;20.17;;;;;;;;;;6195867;28;20030;-77
2022/11/10 16:12:30;;;;;;;47.15;25.08;;;;;;;;;;6178034;28;20022;-77
2022/11/10 16:15:31;;;;;;;48.83;26.37;;;;;;;;;;6171163;28;20165;-77
2022/11/10 16:18:31;;;;;;;46.67;27.07;;;;;;;;;;6194720;28;20026;-77
2022/11/10 16:21:32;;;;;;;32.90;18.80;;;;;;;;;;6195564;28;20483;-77
2022/11/10 16:24:32;;;;;;;32.17;18.67;;;;;;;;;;6177962;28;20027;-77
2022/11/10 16:27:32;;;;;;;36.27;19.63;;;;;;;;;;6194681;28;20562;-77
2022/11/10 16:30:33;;;;;;;32.60;17.57;;;;;;;;;;6177846;28;20482;-77
2022/11/10 16:33:33;;;;;;;44.70;24.07;;;;;;;;;;6194669;28;20086;-77
2022/11/10 16:36:33;;;;;;;49.37;25.23;;;;;;;;;;6196454;28;20378;-77
2022/11/10 16:39:33;;;;;;;72.87;43.13;;;;;;;;;;6194432;28;20030;-77
2022/11/10 16:42:33;;;;;;;57.63;33.87;;;;;;;;;;6195852;28;20499;-77
2022/11/10 16:45:34;;;;;;;57.45;33.35;;;;;;;;;;6178946;28;20033;-77
2022/11/10 16:48:34;;;;;;;65.35;35.97;;;;;;;;;;6194417;28;20033;-77
2022/11/10 16:51:38;;;;;;;62.13;39.67;;;;;;;;;;6196397;28;20657;-77
2022/11/10 16:54:38;;;;;;;71.07;50.30;;;;;;;;;;6195824;28;20314;-77
2022/11/10 16:57:38;;;;;;;83.18;51.75;;;;;;;;;;6197669;28;20031;-77
2022/11/10 17:00:39;;;;;;;66.57;46.70;;;;;;;;;;6197955;28;20016;-77
2022/11/10 17:03:43;;;;;;;81.17;52.20;;;;;;;;;;6179418;28;20014;-77
2022/11/10 17:06:43;;;;;;;70.85;46.10;;;;;;;;;;6197650;28;20471;-77
2022/11/10 17:09:43;;;;;;;64.90;40.70;;;;;;;;;;6179423;28;20026;-77
2022/11/10 17:12:43;;;;;;;76.80;41.90;;;;;;;;;;6179911;28;20422;-77
2022/11/10 17:15:44;;;;;;;83.47;49.93;;;;;;;;;;6196560;28;20227;-77
2022/11/10 17:18:45;;;;;;;171.13;106.10;;;;;;;;;;6196397;28;20289;-77
2022/11/10 17:21:47;;;;;;;138.43;85.53;;;;;;;;;;6197285;28;20010;-77
2022/11/10 17:24:49;;;;;;;115.57;68.30;;;;;;;;;;6195114;28;20616;-77
2022/11/10 17:27:50;;;;;;;115.25;67.03;;;;;;;;;;6200221;28;20113;-77
2022/11/10 17:30:51;;;;;;;163.95;96.85;;;;;;;;;;6196625;28;20359;-77
2022/11/10 17:33:51;;;;;;;143.52;91.38;;;;;;;;;;6198489;28;20025;-77
2022/11/10 17:36:52;;;;;;;146.53;94.87;;;;;;;;;;6196675;28;20050;-77
2022/11/10 17:39:52;;;;;;;150.00;88.23;;;;;;;;;;6197429;28;20228;-77
2022/11/10 17:42:52;;;;;;;154.67;93.40;;;;;;;;;;6196309;28;20029;-77
2022/11/10 17:45:53;;;;;;;129.57;77.03;;;;;;;;;;6199052;28;20026;-77
2022/11/10 17:48:54;;;;;;;121.40;73.50;;;;;;;;;;6180199;28;20049;-77
2022/11/10 17:51:54;;;;;;;150.30;97.20;;;;;;;;;;6197366;28;20026;-77
2022/11/10 17:54:54;;;;;;;136.50;83.43;;;;;;;;;;6179950;28;20022;-77
2022/11/10 17:57:56;;;;;;;142.00;80.07;;;;;;;;;;6178840;28;20483;-77